Time;durP1;ratioP1;P1;durP2;ratioP2;P2;SDS_P1;SDS_P2;PMS_P1;PMS_P2;Temp;Humidity;BMP_temperature;BMP_pressure;BME280_temperature;BME280_humidity;BME280_pressure;Samples;Min_cycle;Max_cycle;Signal;HPM_P1;HPM_P2
2022/04/06 00:06:03;;;;;;;2.58;2.20;;;;;;;;;;5830162;24;20028;-83
2022/04/06 00:18:53;;;;;;;1.70;1.60;;;;;;;;;;5788273;24;20039;-84
2022/04/06 00:22:46;;;;;;;2.13;1.92;;;;;;;;;;5842009;24;20037;-84
2022/04/06 00:26:36;;;;;;;;;;;;;;;;;;;;;
2022/04/06 00:39:09;;;;;;;4.18;2.08;;;;;;;;;;5850025;24;20026;-84
2022/04/06 00:46:43;;;;;;;1.75;1.65;;;;;;;;;;5901920;24;20039;-84
2022/04/06 00:50:29;;;;;;;2.97;2.67;;;;;;;;;;5947799;24;20046;-84
2022/04/06 00:53:41;;;;;;;;;;;;;;;;;;;;;
2022/04/06 00:57:31;;;;;;;;;;;;;;;;;;;;;
2022/04/06 01:06:03;;;;;;;2.42;2.22;;;;;;;;;;5905917;24;20032;-83
2022/04/06 01:09:43;;;;;;;4.78;1.85;;;;;;;;;;5909536;23;20026;-84
2022/04/06 01:12:44;;;;;;;3.00;2.40;;;;;;;;;;5997090;23;20027;-84
2022/04/06 01:19:43;;;;;;;2.95;2.47;;;;;;;;;;6027597;23;20038;-84
2022/04/06 01:22:30;;;;;;;3.55;3.25;;;;;;;;;;6006089;23;20019;-84
2022/04/06 01:26:20;;;;;;;2.30;2.10;;;;;;;;;;6041020;23;20386;-84
2022/04/06 01:35:54;;;;;;;;;;;;;;;;;;;;;
2022/04/06 01:40:05;;;;;;;2.38;2.28;;;;;;;;;;5808482;24;20034;-84
2022/04/06 01:53:10;;;;;;;2.03;1.92;;;;;;;;;;5893489;24;20048;-84
2022/04/06 01:57:43;;;;;;;;;;;;;;;;;;;;;
2022/04/06 02:07:19;;;;;;;2.25;2.15;;;;;;;;;;5976714;23;20024;-84
2022/04/06 02:11:15;;;;;;;3.35;2.92;;;;;;;;;;6052044;23;20015;-84
2022/04/06 02:14:25;;;;;;;1.75;1.52;;;;;;;;;;5989110;23;20032;-84
2022/04/06 02:17:29;;;;;;;2.40;1.92;;;;;;;;;;5948406;23;20453;-83
2022/04/06 02:20:11;;;;;;;2.95;2.63;;;;;;;;;;5971277;24;20035;-83
2022/04/06 02:22:47;;;;;;;2.38;1.90;;;;;;;;;;5948418;23;20082;-83
2022/04/06 02:25:41;;;;;;;3.85;3.65;;;;;;;;;;5966929;23;20085;-83
2022/04/06 02:29:16;;;;;;;2.58;2.38;;;;;;;;;;6008742;23;20031;-83
2022/04/06 02:32:54;;;;;;;2.53;1.90;;;;;;;;;;6005216;23;20024;-83
2022/04/06 02:40:50;;;;;;;3.13;2.83;;;;;;;;;;6028829;23;20031;-84
2022/04/06 02:44:32;;;;;;;2.10;1.80;;;;;;;;;;6027607;23;20027;-83
2022/04/06 02:48:33;;;;;;;1.70;1.60;;;;;;;;;;6116913;23;20030;-83
2022/04/06 02:52:04;;;;;;;;;;;;;;;;;;6143964;23;20053;-83
2022/04/06 02:55:43;;;;;;;2.75;2.33;;;;;;;;;;6096298;23;19928;-83
2022/04/06 02:58:41;;;;;;;1.67;1.58;;;;;;;;;;6112097;23;20034;-83
2022/04/06 03:01:46;;;;;;;1.98;1.80;;;;;;;;;;6146519;23;20034;-83
2022/04/06 03:10:00;;;;;;;;;;;;;;;;;;;;;
2022/04/06 03:13:36;;;;;;;1.95;1.75;;;;;;;;;;5886786;24;20043;-84
2022/04/06 03:20:50;;;;;;;3.92;1.70;;;;;;;;;;5923362;23;20412;-82
2022/04/06 03:24:09;;;;;;;3.10;1.70;;;;;;;;;;5926366;24;20039;-83
2022/04/06 03:27:48;;;;;;;2.15;2.05;;;;;;;;;;5960044;24;20031;-83
2022/04/06 03:30:52;;;;;;;4.03;1.63;;;;;;;;;;5897988;24;20054;-83
2022/04/06 03:33:55;;;;;;;1.88;1.63;;;;;;;;;;5883519;24;20366;-84
2022/04/06 03:36:35;;;;;;;2.78;2.58;;;;;;;;;;5959810;23;20073;-83
2022/04/06 03:39:20;;;;;;;1.65;1.55;;;;;;;;;;5955136;23;20023;-83
2022/04/06 03:42:16;;;;;;;2.70;1.98;;;;;;;;;;5941254;23;20031;-83
2022/04/06 03:45:01;;;;;;;1.35;1.25;;;;;;;;;;6018061;23;20492;-83
2022/04/06 03:47:59;;;;;;;1.85;1.70;;;;;;;;;;6087177;23;20025;-83
2022/04/06 03:50:48;;;;;;;2.85;2.65;;;;;;;;;;6078879;23;20027;-83
2022/04/06 03:54:00;;;;;;;2.28;1.70;;;;;;;;;;6059336;23;20023;-83
2022/04/06 03:57:57;;;;;;;;;;;;;;;;;;;;;
2022/04/06 04:01:51;;;;;;;1.92;1.77;;;;;;;;;;6149776;23;20091;-84
2022/04/06 04:04:37;;;;;;;3.95;2.95;;;;;;;;;;6137388;23;20017;-84
2022/04/06 04:07:19;;;;;;;1.23;1.13;;;;;;;;;;6187961;23;20453;-83
2022/04/06 04:10:27;;;;;;;2.10;2.00;;;;;;;;;;6126936;23;20025;-84
2022/04/06 04:13:34;;;;;;;1.90;1.80;;;;;;;;;;6122366;23;20017;-83
2022/04/06 04:17:01;;;;;;;3.85;1.85;;;;;;;;;;6152987;23;20330;-84
2022/04/06 04:20:41;;;;;;;1.83;1.73;;;;;;;;;;6144704;23;20032;-84
2022/04/06 04:24:08;;;;;;;1.83;1.73;;;;;;;;;;6155373;23;20408;-84
2022/04/06 04:31:28;;;;;;;3.47;2.40;;;;;;;;;;6173474;23;20021;-84
2022/04/06 04:35:48;;;;;;;2.92;2.05;;;;;;;;;;6065219;23;20033;-84
2022/04/06 04:39:22;;;;;;;1.58;1.48;;;;;;;;;;5977267;23;20030;-83
2022/04/06 04:42:06;;;;;;;1.75;1.65;;;;;;;;;;6059032;23;20024;-84
2022/04/06 04:44:43;;;;;;;3.08;2.78;;;;;;;;;;6127829;23;20056;-83
2022/04/06 04:47:16;;;;;;;3.28;2.00;;;;;;;;;;6189118;23;20032;-83
2022/04/06 04:49:44;;;;;;;2.63;2.42;;;;;;;;;;6127033;23;20468;-84
2022/04/06 04:52:44;;;;;;;3.00;2.85;;;;;;;;;;6179227;23;20017;-83
2022/04/06 04:55:41;;;;;;;2.47;2.28;;;;;;;;;;6122898;23;20720;-81
2022/04/06 04:58:12;;;;;;;2.15;1.95;;;;;;;;;;6153667;23;20033;-84
2022/04/06 05:00:40;;;;;;;2.53;2.33;;;;;;;;;;6182240;23;20036;-84
2022/04/06 05:03:09;;;;;;;4.95;2.58;;;;;;;;;;6188222;23;20017;-84
2022/04/06 05:05:39;;;;;;;4.07;1.63;;;;;;;;;;6182721;23;20032;-84
2022/04/06 05:08:08;;;;;;;1.98;1.83;;;;;;;;;;6187685;23;20024;-83
2022/04/06 05:10:57;;;;;;;2.70;1.90;;;;;;;;;;6178512;23;20021;-86
2022/04/06 05:13:36;;;;;;;2.15;1.80;;;;;;;;;;6139655;23;20033;-81
2022/04/06 05:16:04;;;;;;;2.08;1.98;;;;;;;;;;6152022;23;20683;-82
2022/04/06 05:18:32;;;;;;;1.45;1.35;;;;;;;;;;6178047;23;20427;-82
2022/04/06 05:21:00;;;;;;;2.17;1.90;;;;;;;;;;6126424;23;20032;-81
2022/04/06 05:23:28;;;;;;;1.55;1.45;;;;;;;;;;6161153;23;20105;-82
2022/04/06 05:25:56;;;;;;;1.88;1.77;;;;;;;;;;6180736;23;20051;-83
2022/04/06 05:28:24;;;;;;;2.58;2.38;;;;;;;;;;6186654;23;20024;-78
2022/04/06 05:30:52;;;;;;;2.10;2.00;;;;;;;;;;6187840;23;20017;-79
2022/04/06 05:33:20;;;;;;;2.03;1.92;;;;;;;;;;6182596;23;20344;-79
2022/04/06 05:35:49;;;;;;;2.92;2.72;;;;;;;;;;6188287;23;20017;-79
2022/04/06 05:38:17;;;;;;;2.03;1.80;;;;;;;;;;6177490;23;20025;-79
2022/04/06 05:40:45;;;;;;;1.92;1.83;;;;;;;;;;6185293;23;20047;-79
2022/04/06 05:43:13;;;;;;;3.28;3.08;;;;;;;;;;6162250;23;20021;-79
2022/04/06 05:45:41;;;;;;;1.60;1.50;;;;;;;;;;6178756;23;20021;-79
2022/04/06 05:48:09;;;;;;;2.55;2.35;;;;;;;;;;6187329;23;20024;-79
2022/04/06 05:50:38;;;;;;;1.73;1.63;;;;;;;;;;6177300;23;20025;-80
2022/04/06 05:53:06;;;;;;;2.40;2.20;;;;;;;;;;6182516;23;20024;-78
2022/04/06 05:55:34;;;;;;;2.30;2.05;;;;;;;;;;6187744;23;20479;-79
2022/04/06 05:58:03;;;;;;;4.68;2.80;;;;;;;;;;6152803;23;20032;-77
2022/04/06 06:00:31;;;;;;;3.05;2.85;;;;;;;;;;6145392;23;20032;-79
2022/04/06 06:02:59;;;;;;;2.58;2.40;;;;;;;;;;6158520;23;20014;-79
2022/04/06 06:05:27;;;;;;;1.70;1.60;;;;;;;;;;6153499;23;20021;-79
2022/04/06 06:07:55;;;;;;;2.28;2.03;;;;;;;;;;6157520;23;20334;-79
2022/04/06 06:10:24;;;;;;;2.28;2.17;;;;;;;;;;6149359;23;20033;-79
2022/04/06 06:12:52;;;;;;;2.38;2.28;;;;;;;;;;6155888;23;20029;-79
2022/04/06 06:15:20;;;;;;;2.40;2.08;;;;;;;;;;6146621;23;20028;-79
2022/04/06 06:17:48;;;;;;;3.45;3.05;;;;;;;;;;6151067;23;20033;-79
2022/04/06 06:20:16;;;;;;;1.63;1.52;;;;;;;;;;6158047;23;20024;-78
2022/04/06 06:22:44;;;;;;;2.03;1.92;;;;;;;;;;6147375;23;20029;-78
2022/04/06 06:25:12;;;;;;;2.42;2.22;;;;;;;;;;6153739;23;20032;-78
2022/04/06 06:27:40;;;;;;;2.15;1.85;;;;;;;;;;6158402;23;20013;-78
2022/04/06 06:30:11;;;;;;;1.75;1.65;;;;;;;;;;6150136;23;20052;-78
2022/04/06 06:32:39;;;;;;;;;;;;;;;;;;6156561;23;20032;-78
2022/04/06 06:35:08;;;;;;;2.03;1.67;;;;;;;;;;6155973;23;19921;-79
2022/04/06 06:37:36;;;;;;;1.52;1.42;;;;;;;;;;6144843;23;20780;-78
2022/04/06 06:40:05;;;;;;;1.30;1.20;;;;;;;;;;6157335;23;20020;-78
2022/04/06 06:42:33;;;;;;;2.00;1.00;;;;;;;;;;6146228;23;20029;-78
2022/04/06 06:45:01;;;;;;;1.25;1.15;;;;;;;;;;6154263;23;20561;-78
2022/04/06 06:47:29;;;;;;;1.92;1.45;;;;;;;;;;6157028;23;20341;-79
2022/04/06 06:49:57;;;;;;;1.25;1.13;;;;;;;;;;6149200;23;20476;-79
2022/04/06 06:52:26;;;;;;;0.88;0.88;;;;;;;;;;6156631;23;20014;-78
2022/04/06 06:54:54;;;;;;;0.85;0.80;;;;;;;;;;6156885;23;20374;-79
2022/04/06 06:57:21;;;;;;;1.20;0.90;;;;;;;;;;6152321;23;20032;-79
2022/04/06 06:59:49;;;;;;;1.10;0.70;;;;;;;;;;6161488;23;20638;-79
2022/04/06 07:02:17;;;;;;;0.90;0.90;;;;;;;;;;6178290;23;20025;-79
2022/04/06 07:04:46;;;;;;;1.33;1.23;;;;;;;;;;6184839;23;20021;-79
2022/04/06 07:07:18;;;;;;;0.88;0.88;;;;;;;;;;6176896;23;20020;-79
2022/04/06 07:09:46;;;;;;;1.45;1.17;;;;;;;;;;6179589;23;20028;-79
2022/04/06 07:12:14;;;;;;;1.67;1.33;;;;;;;;;;6160878;23;20017;-79
2022/04/06 07:14:43;;;;;;;0.52;0.52;;;;;;;;;;6176001;23;20032;-79
2022/04/06 07:17:11;;;;;;;1.23;1.15;;;;;;;;;;6182634;23;20029;-79
2022/04/06 07:19:41;;;;;;;0.95;0.82;;;;;;;;;;6160227;23;20036;-79
2022/04/06 07:22:09;;;;;;;0.70;0.70;;;;;;;;;;6150275;23;20397;-79
2022/04/06 07:24:37;;;;;;;0.80;0.80;;;;;;;;;;6174454;23;20025;-79
2022/04/06 07:27:05;;;;;;;1.33;0.70;;;;;;;;;;6186732;23;20017;-79
2022/04/06 07:29:33;;;;;;;1.30;1.20;;;;;;;;;;6180602;23;20017;-79
2022/04/06 07:32:02;;;;;;;1.98;1.02;;;;;;;;;;6187574;23;20021;-79
2022/04/06 07:34:30;;;;;;;1.15;0.80;;;;;;;;;;6176487;23;20028;-78
2022/04/06 07:36:59;;;;;;;0.85;0.82;;;;;;;;;;6183553;23;20021;-78
2022/04/06 07:39:30;;;;;;;;;;;;;;;;;;6160322;23;20013;-77
2022/04/06 07:41:58;;;;;;;1.70;1.20;;;;;;;;;;6179659;23;19935;-78
2022/04/06 07:44:26;;;;;;;0.85;0.85;;;;;;;;;;6185883;23;20017;-78
2022/04/06 07:46:54;;;;;;;0.90;0.90;;;;;;;;;;6187249;23;21040;-78
2022/04/06 07:49:22;;;;;;;1.13;1.02;;;;;;;;;;6181573;23;20025;-78
2022/04/06 07:51:52;;;;;;;2.17;2.08;;;;;;;;;;6187010;23;20461;-78
2022/04/06 07:54:23;;;;;;;0.95;0.93;;;;;;;;;;6177079;23;20025;-78
2022/04/06 07:56:51;;;;;;;1.48;1.38;;;;;;;;;;6157872;23;20025;-79
2022/04/06 07:59:20;;;;;;;1.38;1.27;;;;;;;;;;6186090;23;20013;-80
2022/04/06 08:01:48;;;;;;;1.52;1.42;;;;;;;;;;6154286;23;20029;-80
2022/04/06 08:04:16;;;;;;;2.88;1.83;;;;;;;;;;6127169;23;20028;-80
2022/04/06 08:06:44;;;;;;;1.30;1.20;;;;;;;;;;6176975;23;20036;-79
2022/04/06 08:09:12;;;;;;;1.58;1.40;;;;;;;;;;6183496;23;20021;-79
2022/04/06 08:11:40;;;;;;;1.33;1.08;;;;;;;;;;6188906;23;20013;-79
2022/04/06 08:14:08;;;;;;;1.58;1.48;;;;;;;;;;6180551;23;20029;-79
2022/04/06 08:16:36;;;;;;;4.03;1.92;;;;;;;;;;6186292;23;20317;-79
2022/04/06 08:19:04;;;;;;;1.23;1.13;;;;;;;;;;6187068;23;20028;-79
2022/04/06 08:21:32;;;;;;;1.48;1.35;;;;;;;;;;6182666;23;20029;-80
2022/04/06 08:24:00;;;;;;;5.72;1.73;;;;;;;;;;6186716;23;20017;-79
2022/04/06 08:26:29;;;;;;;1.20;1.15;;;;;;;;;;6178347;23;20029;-79
2022/04/06 08:28:57;;;;;;;2.28;1.70;;;;;;;;;;6184205;23;20025;-79
2022/04/06 08:31:25;;;;;;;1.02;1.02;;;;;;;;;;6188291;23;20017;-79
2022/04/06 08:33:53;;;;;;;3.15;1.27;;;;;;;;;;6180500;23;20393;-78
2022/04/06 08:36:21;;;;;;;0.82;0.82;;;;;;;;;;6187569;23;20024;-80
2022/04/06 08:38:49;;;;;;;1.73;1.63;;;;;;;;;;6186553;23;20017;-80
2022/04/06 08:41:17;;;;;;;1.77;1.15;;;;;;;;;;6183869;23;20036;-81
2022/04/06 08:43:46;;;;;;;1.17;1.08;;;;;;;;;;6127671;23;20028;-80
2022/04/06 08:46:15;;;;;;;2.28;1.67;;;;;;;;;;6179541;23;20032;-79
2022/04/06 08:48:45;;;;;;;1.23;1.10;;;;;;;;;;6185168;23;20028;-79
2022/04/06 08:51:15;;;;;;;1.58;1.17;;;;;;;;;;6189226;23;20047;-80
2022/04/06 08:53:48;;;;;;;1.00;1.00;;;;;;;;;;6181322;23;20033;-80
2022/04/06 08:56:22;;;;;;;1.17;1.00;;;;;;;;;;6152445;23;20453;-81
2022/04/06 08:58:50;;;;;;;1.67;1.40;;;;;;;;;;6187986;23;20017;-80
2022/04/06 09:01:20;;;;;;;2.65;1.42;;;;;;;;;;6179216;23;20029;-80
2022/04/06 09:03:49;;;;;;;1.35;1.25;;;;;;;;;;6188508;23;20758;-80
2022/04/06 09:06:18;;;;;;;5.45;1.20;;;;;;;;;;6179875;23;20753;-80
2022/04/06 09:08:49;;;;;;;4.53;2.80;;;;;;;;;;6184663;23;20028;-79
2022/04/06 09:11:18;;;;;;;1.40;1.30;;;;;;;;;;6187424;23;20021;-81
2022/04/06 09:13:47;;;;;;;2.22;1.85;;;;;;;;;;6181824;23;20025;-82
2022/04/06 09:16:16;;;;;;;2.33;2.10;;;;;;;;;;6162552;23;20028;-82
2022/04/06 09:18:45;;;;;;;2.08;1.67;;;;;;;;;;6126145;23;20029;-80
2022/04/06 09:21:15;;;;;;;1.85;1.55;;;;;;;;;;6151373;23;20468;-81
2022/04/06 09:23:45;;;;;;;3.03;1.90;;;;;;;;;;6161279;23;20528;-82
2022/04/06 09:26:13;;;;;;;2.35;1.63;;;;;;;;;;6180251;23;20028;-82
2022/04/06 09:28:42;;;;;;;1.55;1.45;;;;;;;;;;6159191;23;20025;-82
2022/04/06 09:31:13;;;;;;;4.68;2.10;;;;;;;;;;6127487;23;20024;-82
2022/04/06 09:33:43;;;;;;;2.50;1.88;;;;;;;;;;6126140;23;20025;-82
2022/04/06 09:36:19;;;;;;;2.00;1.80;;;;;;;;;;6127249;23;20017;-83
2022/04/06 09:38:48;;;;;;;2.40;2.13;;;;;;;;;;6100862;23;20021;-79
2022/04/06 09:41:19;;;;;;;4.60;2.45;;;;;;;;;;6126554;23;20025;-82
2022/04/06 09:43:48;;;;;;;2.70;2.03;;;;;;;;;;6127422;23;20024;-81
2022/04/06 09:49:17;;;;;;;5.10;2.47;;;;;;;;;;6157176;23;20024;-82
2022/04/06 09:52:05;;;;;;;4.40;2.00;;;;;;;;;;6127732;23;20021;-82
2022/04/06 09:54:41;;;;;;;2.10;1.90;;;;;;;;;;6147972;23;20028;-82
2022/04/06 09:57:16;;;;;;;1.33;1.23;;;;;;;;;;6143384;23;20029;-82
2022/04/06 09:59:57;;;;;;;1.33;1.23;;;;;;;;;;6095089;23;20041;-82
2022/04/06 10:02:37;;;;;;;1.27;1.17;;;;;;;;;;6112507;23;20367;-82
2022/04/06 10:05:24;;;;;;;2.95;1.63;;;;;;;;;;6023325;23;20037;-82
2022/04/06 10:08:17;;;;;;;1.53;1.43;;;;;;;;;;6094796;23;20323;-82
2022/04/06 10:10:47;;;;;;;1.92;1.60;;;;;;;;;;6042217;23;20227;-83
2022/04/06 10:13:17;;;;;;;1.13;0.98;;;;;;;;;;6119745;23;20025;-83
2022/04/06 10:16:11;;;;;;;3.80;1.42;;;;;;;;;;6125213;23;20022;-81
2022/04/06 10:18:42;;;;;;;3.58;1.20;;;;;;;;;;6069515;23;20428;-83
2022/04/06 10:21:48;;;;;;;0.93;0.93;;;;;;;;;;6099730;23;20025;-80
2022/04/06 10:24:43;;;;;;;1.02;0.98;;;;;;;;;;6093514;23;20028;-82
2022/04/06 10:27:16;;;;;;;1.25;1.00;;;;;;;;;;6126765;23;20165;-81
2022/04/06 10:30:03;;;;;;;2.25;1.15;;;;;;;;;;6094811;23;20029;-81
2022/04/06 10:32:34;;;;;;;0.90;0.85;;;;;;;;;;6128000;23;20021;-81
2022/04/06 10:35:21;;;;;;;3.60;1.20;;;;;;;;;;6145551;23;20018;-80
2022/04/06 10:37:58;;;;;;;0.80;0.80;;;;;;;;;;6093056;23;20029;-80
2022/04/06 10:40:28;;;;;;;1.15;0.95;;;;;;;;;;6164078;23;20508;-80
2022/04/06 10:42:56;;;;;;;1.53;1.43;;;;;;;;;;6187653;23;20656;-82
2022/04/06 10:45:28;;;;;;;0.80;0.80;;;;;;;;;;6182192;23;20039;-82
2022/04/06 10:48:12;;;;;;;1.20;1.10;;;;;;;;;;6186939;23;20017;-84
2022/04/06 10:50:44;;;;;;;1.65;1.55;;;;;;;;;;6176734;23;20028;-84
2022/04/06 10:53:21;;;;;;;1.58;1.23;;;;;;;;;;6182295;23;20025;-82
2022/04/06 10:56:05;;;;;;;2.05;1.58;;;;;;;;;;6187659;23;20013;-80
2022/04/06 10:58:52;;;;;;;1.73;1.63;;;;;;;;;;6176817;23;20040;-80
2022/04/06 11:01:29;;;;;;;1.85;1.70;;;;;;;;;;6176430;23;20029;-80
2022/04/06 11:03:59;;;;;;;1.70;1.60;;;;;;;;;;6187014;23;20352;-79
2022/04/06 11:06:44;;;;;;;2.13;1.42;;;;;;;;;;6177847;23;20044;-80
2022/04/06 11:12:25;;;;;;;2.15;2.05;;;;;;;;;;6177595;23;20017;-82
2022/04/06 11:14:59;;;;;;;2.35;2.15;;;;;;;;;;6135234;23;20029;-82
2022/04/06 11:17:48;;;;;;;2.13;1.50;;;;;;;;;;6149058;23;20025;-85
2022/04/06 11:20:54;;;;;;;2.15;1.42;;;;;;;;;;6160925;23;20065;-86
2022/04/06 11:24:31;;;;;;;1.77;1.40;;;;;;;;;;6144925;23;20375;-82
2022/04/06 11:31:57;;;;;;;1.42;1.33;;;;;;;;;;6098122;23;20040;-83
2022/04/06 11:34:40;;;;;;;2.53;1.70;;;;;;;;;;6177602;23;20029;-84
2022/04/06 11:44:31;;;;;;;1.20;1.10;;;;;;;;;;6116420;23;20038;-84
2022/04/06 11:47:00;;;;;;;1.05;1.02;;;;;;;;;;6114624;23;20037;-83
2022/04/06 11:49:32;;;;;;;2.13;1.52;;;;;;;;;;6143607;23;20029;-85
2022/04/06 11:52:00;;;;;;;1.88;1.35;;;;;;;;;;6190719;23;20024;-85
2022/04/06 11:55:02;;;;;;;1.65;1.27;;;;;;;;;;6179462;23;20040;-86
2022/04/06 11:57:47;;;;;;;1.83;1.73;;;;;;;;;;6181240;23;20721;-86
2022/04/06 12:00:22;;;;;;;1.90;1.30;;;;;;;;;;6151503;23;20445;-83
2022/04/06 12:02:53;;;;;;;1.02;1.00;;;;;;;;;;6164592;23;20029;-83
2022/04/06 12:05:46;;;;;;;7.53;1.27;;;;;;;;;;6178266;23;20029;-83
2022/04/06 12:08:15;;;;;;;1.40;1.23;;;;;;;;;;6187287;23;20048;-83
2022/04/06 12:10:49;;;;;;;1.25;1.15;;;;;;;;;;6152162;23;20021;-85
2022/04/06 12:13:18;;;;;;;1.65;1.55;;;;;;;;;;6184647;23;20028;-83
2022/04/06 12:15:48;;;;;;;2.40;2.17;;;;;;;;;;6189221;23;20017;-83
2022/04/06 12:18:20;;;;;;;1.17;1.15;;;;;;;;;;6179571;23;20561;-81
2022/04/06 12:20:53;;;;;;;1.63;1.50;;;;;;;;;;6168440;23;20036;-83
2022/04/06 12:23:26;;;;;;;1.92;1.60;;;;;;;;;;6143619;23;20021;-81
2022/04/06 12:25:58;;;;;;;2.78;1.65;;;;;;;;;;6154999;23;20032;-79
2022/04/06 12:28:28;;;;;;;3.58;1.73;;;;;;;;;;6186643;23;20021;-83
2022/04/06 12:30:57;;;;;;;1.10;1.05;;;;;;;;;;6188527;23;20024;-81
2022/04/06 12:33:32;;;;;;;5.07;1.60;;;;;;;;;;6183055;23;20523;-82
2022/04/06 12:36:17;;;;;;;1.13;1.05;;;;;;;;;;6188731;23;20020;-81
2022/04/06 12:38:59;;;;;;;1.33;1.02;;;;;;;;;;6149753;23;20029;-81
2022/04/06 12:41:28;;;;;;;1.40;1.30;;;;;;;;;;6151304;23;20028;-81
2022/04/06 12:43:58;;;;;;;1.08;1.08;;;;;;;;;;6188996;23;20779;-79
2022/04/06 12:46:36;;;;;;;1.00;1.00;;;;;;;;;;6126981;23;20029;-80
2022/04/06 12:49:24;;;;;;;2.10;1.50;;;;;;;;;;6183048;23;20468;-80
2022/04/06 12:52:12;;;;;;;2.03;1.92;;;;;;;;;;6150981;23;20700;-77
2022/04/06 12:54:41;;;;;;;0.93;0.82;;;;;;;;;;6177374;23;20029;-78
2022/04/06 12:57:18;;;;;;;1.23;1.08;;;;;;;;;;6183888;23;20036;-78
2022/04/06 12:59:54;;;;;;;2.65;1.25;;;;;;;;;;6187114;23;20017;-78
2022/04/06 13:02:29;;;;;;;1.83;1.25;;;;;;;;;;6151930;23;20551;-80
2022/04/06 13:05:02;;;;;;;2.13;1.45;;;;;;;;;;6184808;23;20040;-78
2022/04/06 13:07:30;;;;;;;0.90;0.85;;;;;;;;;;6187867;23;20017;-79
2022/04/06 13:10:06;;;;;;;1.60;1.50;;;;;;;;;;6179781;23;20028;-79
2022/04/06 13:12:34;;;;;;;1.55;1.45;;;;;;;;;;6151338;23;20032;-79
2022/04/06 13:15:03;;;;;;;2.15;1.55;;;;;;;;;;6188101;23;20017;-79
2022/04/06 13:17:31;;;;;;;1.50;1.40;;;;;;;;;;6182318;23;20035;-79
2022/04/06 13:19:59;;;;;;;3.28;1.45;;;;;;;;;;6187562;23;20475;-79
2022/04/06 13:22:27;;;;;;;2.83;2.40;;;;;;;;;;6178621;23;20029;-79
2022/04/06 13:24:55;;;;;;;2.53;1.88;;;;;;;;;;6183868;23;20017;-79
2022/04/06 13:27:23;;;;;;;1.30;1.20;;;;;;;;;;6187882;23;20017;-79
2022/04/06 13:29:51;;;;;;;2.33;1.77;;;;;;;;;;6151151;23;20032;-79
2022/04/06 13:32:20;;;;;;;1.58;1.33;;;;;;;;;;6187413;23;20017;-79
2022/04/06 13:34:48;;;;;;;1.17;1.08;;;;;;;;;;6188476;23;20368;-79
2022/04/06 13:37:17;;;;;;;4.45;1.50;;;;;;;;;;6183737;23;20752;-79
2022/04/06 13:39:47;;;;;;;2.00;1.90;;;;;;;;;;6187275;23;20024;-79
2022/04/06 13:42:16;;;;;;;1.50;1.40;;;;;;;;;;6179497;23;20664;-79
2022/04/06 13:44:44;;;;;;;1.35;1.25;;;;;;;;;;6185681;23;20040;-79
2022/04/06 13:47:13;;;;;;;1.02;1.02;;;;;;;;;;6188125;23;20017;-80
2022/04/06 13:49:41;;;;;;;1.65;1.38;;;;;;;;;;6180904;23;20035;-79
2022/04/06 13:52:09;;;;;;;2.40;1.77;;;;;;;;;;6187758;23;20024;-79
2022/04/06 13:54:37;;;;;;;1.05;0.95;;;;;;;;;;6176703;23;20044;-80
2022/04/06 13:57:05;;;;;;;1.63;1.52;;;;;;;;;;6183272;23;20029;-79
2022/04/06 13:59:33;;;;;;;1.65;1.55;;;;;;;;;;6187691;23;20017;-79
2022/04/06 14:02:01;;;;;;;1.60;1.25;;;;;;;;;;6150772;23;20361;-79
2022/04/06 14:04:29;;;;;;;1.90;1.45;;;;;;;;;;6150185;23;20032;-79
2022/04/06 14:06:58;;;;;;;1.83;1.13;;;;;;;;;;6187761;23;20036;-79
2022/04/06 14:09:27;;;;;;;1.58;1.48;;;;;;;;;;6149630;23;20028;-79
2022/04/06 14:11:57;;;;;;;1.85;1.60;;;;;;;;;;6188085;23;20021;-80
2022/04/06 14:14:25;;;;;;;3.00;2.65;;;;;;;;;;6151075;23;20033;-80
2022/04/06 14:16:53;;;;;;;1.65;1.55;;;;;;;;;;6183966;23;20017;-79
2022/04/06 14:19:21;;;;;;;2.33;2.13;;;;;;;;;;6187163;23;20640;-79
2022/04/06 14:21:49;;;;;;;1.42;1.33;;;;;;;;;;6152492;23;20032;-79
2022/04/06 14:24:20;;;;;;;7.55;2.75;;;;;;;;;;6184008;23;20040;-79
2022/04/06 14:26:54;;;;;;;2.53;1.23;;;;;;;;;;6159199;23;20032;-79
2022/04/06 14:29:25;;;;;;;2.33;1.60;;;;;;;;;;6174746;23;20043;-78
2022/04/06 14:31:56;;;;;;;2.63;2.00;;;;;;;;;;6150613;23;20249;-78
2022/04/06 14:34:25;;;;;;;2.05;1.73;;;;;;;;;;6174907;23;20040;-78
2022/04/06 14:36:53;;;;;;;1.27;1.17;;;;;;;;;;6183343;23;20024;-79
2022/04/06 14:39:24;;;;;;;1.23;1.23;;;;;;;;;;6186042;23;20017;-83
2022/04/06 14:42:01;;;;;;;1.38;1.27;;;;;;;;;;6176391;23;20326;-79
2022/04/06 14:44:37;;;;;;;1.98;1.70;;;;;;;;;;6176339;23;20028;-80
2022/04/06 14:47:25;;;;;;;2.67;2.47;;;;;;;;;;6174810;23;20110;-80
2022/04/06 14:50:12;;;;;;;1.27;1.17;;;;;;;;;;6176688;23;20021;-81
2022/04/06 14:52:57;;;;;;;2.00;1.90;;;;;;;;;;6152226;23;20017;-77
2022/04/06 14:55:40;;;;;;;2.47;1.95;;;;;;;;;;6153192;23;20697;-80
2022/04/06 14:58:22;;;;;;;1.42;1.33;;;;;;;;;;6175896;23;20032;-79
2022/04/06 15:00:57;;;;;;;2.97;2.35;;;;;;;;;;6176381;23;20027;-79
2022/04/06 15:03:41;;;;;;;1.75;1.63;;;;;;;;;;6176350;23;20356;-79
2022/04/06 15:06:13;;;;;;;2.03;1.40;;;;;;;;;;6178464;23;20021;-78
2022/04/06 15:08:44;;;;;;;;;;;;;;;;;;6176156;23;20524;-80
2022/04/06 15:11:16;;;;;;;2.67;1.60;;;;;;;;;;6187456;23;20508;-80
2022/04/06 15:13:51;;;;;;;2.00;1.90;;;;;;;;;;6179536;23;20021;-78
2022/04/06 15:16:25;;;;;;;2.13;1.88;;;;;;;;;;6150985;23;20341;-80
2022/04/06 15:18:54;;;;;;;2.15;1.38;;;;;;;;;;6160904;23;20013;-82
2022/04/06 15:21:23;;;;;;;3.58;1.38;;;;;;;;;;6126575;23;20032;-85
2022/04/06 15:23:58;;;;;;;1.83;1.73;;;;;;;;;;6126278;23;20017;-83
2022/04/06 15:26:31;;;;;;;3.22;1.25;;;;;;;;;;6144768;23;20026;-84
2022/04/06 15:29:02;;;;;;;2.95;1.58;;;;;;;;;;6151843;23;20025;-84
2022/04/06 15:31:31;;;;;;;0.75;0.75;;;;;;;;;;6157702;23;20405;-83
2022/04/06 15:34:03;;;;;;;2.13;1.98;;;;;;;;;;6123960;23;20032;-84
2022/04/06 15:39:44;;;;;;;1.70;1.38;;;;;;;;;;6156230;23;20117;-80
2022/04/06 15:42:26;;;;;;;1.13;1.00;;;;;;;;;;6149108;23;20021;-85
2022/04/06 15:45:02;;;;;;;1.77;1.52;;;;;;;;;;6154153;23;20029;-84
2022/04/06 15:47:38;;;;;;;1.05;1.05;;;;;;;;;;6179898;23;20024;-85
2022/04/06 15:50:08;;;;;;;5.15;1.30;;;;;;;;;;6149579;23;20545;-84
2022/04/06 15:52:37;;;;;;;0.70;0.70;;;;;;;;;;6155852;23;20028;-85
2022/04/06 15:55:11;;;;;;;1.17;1.15;;;;;;;;;;6146667;23;20049;-84
2022/04/06 15:57:51;;;;;;;1.80;1.45;;;;;;;;;;6144942;23;20030;-84
2022/04/06 16:00:30;;;;;;;0.80;0.80;;;;;;;;;;6179039;23;20028;-83
2022/04/06 16:03:16;;;;;;;1.52;1.23;;;;;;;;;;6157647;23;20329;-84
2022/04/06 16:05:59;;;;;;;0.98;0.95;;;;;;;;;;6134893;23;20025;-84
2022/04/06 16:08:45;;;;;;;0.90;0.90;;;;;;;;;;6144091;23;20349;-78
2022/04/06 16:11:26;;;;;;;1.67;1.23;;;;;;;;;;6121968;23;20021;-86
2022/04/06 16:13:56;;;;;;;2.35;1.27;;;;;;;;;;6119426;23;20041;-77
2022/04/06 16:16:31;;;;;;;1.30;1.20;;;;;;;;;;6146347;23;20065;-77
2022/04/06 16:19:01;;;;;;;0.77;0.77;;;;;;;;;;6156340;23;20457;-79
2022/04/06 16:21:29;;;;;;;2.70;1.30;;;;;;;;;;6174859;23;20026;-77
2022/04/06 16:23:58;;;;;;;1.38;1.27;;;;;;;;;;6147784;23;20028;-77
2022/04/06 16:26:25;;;;;;;1.20;0.93;;;;;;;;;;6176929;23;20036;-77
2022/04/06 16:28:56;;;;;;;1.70;1.33;;;;;;;;;;6185023;23;20021;-77
2022/04/06 16:31:26;;;;;;;1.35;1.25;;;;;;;;;;6188518;23;20013;-77
2022/04/06 16:34:00;;;;;;;1.35;1.25;;;;;;;;;;6180901;23;20132;-77
2022/04/06 16:36:33;;;;;;;0.65;0.65;;;;;;;;;;6187513;23;20467;-77
2022/04/06 16:39:02;;;;;;;1.30;1.20;;;;;;;;;;6186802;23;20332;-78
2022/04/06 16:41:30;;;;;;;1.10;1.05;;;;;;;;;;6151962;23;20064;-85
2022/04/06 16:44:06;;;;;;;0.60;0.60;;;;;;;;;;6129242;23;20021;-84
2022/04/06 16:46:53;;;;;;;1.27;1.08;;;;;;;;;;6103175;23;20029;-84
2022/04/06 16:52:39;;;;;;;1.10;0.93;;;;;;;;;;6156874;23;20029;-83
2022/04/06 16:55:02;;;;;;;1.52;1.02;;;;;;;;;;6162141;23;20353;-84
2022/04/06 16:57:30;;;;;;;1.00;0.77;;;;;;;;;;6157184;23;20025;-81
2022/04/06 16:59:58;;;;;;;1.17;1.15;;;;;;;;;;6103616;23;20020;-86
2022/04/06 17:02:42;;;;;;;0.80;0.80;;;;;;;;;;6127530;23;20032;-85
2022/04/06 17:05:14;;;;;;;1.08;1.08;;;;;;;;;;6103833;23;20028;-82
2022/04/06 17:07:51;;;;;;;2.03;1.33;;;;;;;;;;6151528;23;20024;-83
2022/04/06 17:10:22;;;;;;;1.63;1.35;;;;;;;;;;6126732;23;20024;-82
2022/04/06 17:12:53;;;;;;;1.38;1.27;;;;;;;;;;6160067;23;20152;-83
2022/04/06 17:15:26;;;;;;;1.27;1.20;;;;;;;;;;6189025;23;20017;-84
2022/04/06 17:17:56;;;;;;;0.82;0.70;;;;;;;;;;6181279;23;20040;-85
2022/04/06 17:20:24;;;;;;;11.50;2.17;;;;;;;;;;6161138;23;20341;-84
2022/04/06 17:22:55;;;;;;;1.42;0.77;;;;;;;;;;6177510;23;20021;-84
2022/04/06 17:25:34;;;;;;;4.13;1.00;;;;;;;;;;6151138;23;20020;-85
2022/04/06 17:33:16;;;;;;;1.05;1.02;;;;;;;;;;6188437;23;20314;-85
2022/04/06 17:40:59;;;;;;;1.25;0.70;;;;;;;;;;6075425;23;20026;-86
2022/04/06 17:45:00;;;;;;;0.82;0.82;;;;;;;;;;5937489;24;20020;-86
2022/04/06 17:52:54;;;;;;;1.75;1.02;;;;;;;;;;6125379;23;20303;-86
2022/04/06 17:56:01;;;;;;;2.22;0.98;;;;;;;;;;6040424;23;20030;-87
2022/04/06 17:59:49;;;;;;;0.70;0.70;;;;;;;;;;6022349;23;20039;-86
2022/04/06 18:02:30;;;;;;;1.60;0.97;;;;;;;;;;6062468;23;20036;-85
2022/04/06 18:05:08;;;;;;;0.70;0.70;;;;;;;;;;6043557;23;20037;-85
2022/04/06 18:08:08;;;;;;;;;;;;;;;;;;;;;
2022/04/06 18:13:49;;;;;;;5.85;2.17;;;;;;;;;;6182276;23;20032;-81
2022/04/06 18:16:21;;;;;;;2.42;1.95;;;;;;;;;;6104052;23;20028;-83